createdAt,value
2022-09-18T00:02:43.332Z,88.90
2022-09-18T00:07:45.308Z,88.87
2022-09-18T00:12:47.130Z,88.85
2022-09-18T00:17:48.822Z,88.77
2022-09-18T00:22:50.502Z,88.78
2022-09-18T00:27:52.325Z,88.78
2022-09-18T00:32:54.201Z,88.65
2022-09-18T00:37:56.076Z,88.46
2022-09-18T00:42:59.056Z,88.38
2022-09-18T00:48:18.356Z,88.28
2022-09-18T00:53:28.597Z,88.12
2022-09-18T00:58:30.551Z,87.98
2022-09-18T01:03:33.032Z,87.84
2022-09-18T01:09:05.392Z,87.57
2022-09-18T01:14:41.223Z,87.31
2022-09-18T01:20:08.157Z,87.19
2022-09-18T01:25:22.516Z,87.04
2022-09-18T01:30:38.361Z,87.05
2022-09-18T01:35:52.984Z,86.86
2022-09-18T01:41:06.437Z,86.65
2022-09-18T01:46:18.192Z,86.54
2022-09-18T01:51:29.676Z,86.60
2022-09-18T01:56:38.357Z,86.73
2022-09-18T02:01:44.552Z,86.89
2022-09-18T02:06:58.406Z,87.06
2022-09-18T02:12:01.952Z,86.94
2022-09-18T02:17:13.818Z,86.75
2022-09-18T02:22:20.113Z,86.48
2022-09-18T02:27:27.253Z,86.31
2022-09-18T02:32:31.719Z,86.10
2022-09-18T02:37:52.236Z,85.72
2022-09-18T02:43:26.802Z,85.40
2022-09-18T02:48:51.741Z,85.26
2022-09-18T02:54:04.376Z,85.18
2022-09-18T02:59:10.231Z,85.03
2022-09-18T03:04:36.328Z,84.85
2022-09-18T03:10:02.520Z,84.73
2022-09-18T03:15:06.937Z,84.65
2022-09-18T03:20:09.887Z,84.56
2022-09-18T03:25:14.450Z,84.64
2022-09-18T03:30:16.639Z,84.83
2022-09-18T03:35:18.850Z,84.93
2022-09-18T03:40:21.216Z,85.01
2022-09-18T03:45:23.135Z,85.06
2022-09-18T03:50:24.919Z,84.94
2022-09-18T03:55:27.493Z,84.88
2022-09-18T04:00:48.014Z,84.79
2022-09-18T04:05:54.585Z,84.69
2022-09-18T04:11:35.788Z,84.70
2022-09-18T04:16:37.791Z,84.81
2022-09-18T04:21:39.689Z,84.85
2022-09-18T04:26:41.508Z,84.81
2022-09-18T04:31:44.177Z,84.80
2022-09-18T04:36:54.839Z,84.76
2022-09-18T04:41:57.089Z,84.68
2022-09-18T04:46:59.328Z,84.54
2022-09-18T04:52:21.332Z,84.53
2022-09-18T04:57:36.713Z,84.63
2022-09-18T05:02:39.002Z,84.77
2022-09-18T05:07:43.594Z,84.93
2022-09-18T05:12:45.652Z,84.85
2022-09-18T05:17:48.210Z,84.67
2022-09-18T05:22:50.693Z,84.63
2022-09-18T05:27:58.169Z,84.69
2022-09-18T05:33:05.289Z,84.61
2022-09-18T05:38:13.749Z,84.27
2022-09-18T05:43:38.338Z,83.92
2022-09-18T05:48:49.838Z,83.60
2022-09-18T05:53:55.655Z,83.25
2022-09-18T05:59:01.070Z,82.87
2022-09-18T06:04:04.543Z,82.13
2022-09-18T06:09:16.563Z,81.80
2022-09-18T06:14:18.305Z,81.48
2022-09-18T06:19:21.461Z,81.20
2022-09-18T06:24:23.550Z,80.99
2022-09-18T06:29:32.826Z,80.49
2022-09-18T06:34:39.969Z,80.15
2022-09-18T06:39:43.754Z,80.18
2022-09-18T06:44:52.131Z,80.21
2022-09-18T06:50:15.301Z,80.18
2022-09-18T06:55:27.114Z,80.06
2022-09-18T07:00:29.277Z,79.97
2022-09-18T07:05:32.751Z,79.87
2022-09-18T07:10:35.275Z,79.87
2022-09-18T07:15:37.329Z,79.45
2022-09-18T07:20:41.318Z,79.37
2022-09-18T07:25:43.253Z,79.17
2022-09-18T07:30:45.334Z,77.70
2022-09-18T07:35:48.036Z,77.74
2022-09-18T07:40:52.961Z,78.03
2022-09-18T07:46:09.100Z,76.59
2022-09-18T07:51:12.737Z,75.71
2022-09-18T07:56:16.617Z,74.97
2022-09-18T08:01:18.655Z,74.22
2022-09-18T08:06:28.311Z,72.64
2022-09-18T08:11:56.192Z,72.05
2022-09-18T08:17:14.051Z,71.07
2022-09-18T08:22:39.407Z,69.70
2022-09-18T08:27:41.824Z,69.07
2022-09-18T08:32:43.893Z,70.37
2022-09-18T08:37:52.326Z,71.99
2022-09-18T08:43:37.365Z,71.02
2022-09-18T08:49:08.740Z,72.45
2022-09-18T08:54:46.339Z,74.01
2022-09-18T09:00:04.359Z,75.27
2022-09-18T09:05:16.831Z,74.74
2022-09-18T09:10:39.031Z,72.58
2022-09-18T09:15:54.414Z,71.34
2022-09-18T09:21:20.593Z,70.51
2022-09-18T09:26:24.802Z,66.16
2022-09-18T09:32:04.497Z,65.96
2022-09-18T09:37:53.330Z,63.32
2022-09-18T09:43:29.771Z,62.70
2022-09-18T09:49:00.445Z,61.48
2022-09-18T09:54:03.354Z,60.46
2022-09-18T09:59:27.094Z,64.19
2022-09-18T10:05:27.238Z,69.33
2022-09-18T10:10:49.381Z,72.91
2022-09-18T10:16:05.790Z,74.99
2022-09-18T10:21:36.794Z,75.17
2022-09-18T10:27:14.323Z,74.46
2022-09-18T10:32:38.419Z,74.66
2022-09-18T10:37:51.024Z,73.34
2022-09-18T10:43:01.636Z,73.71
2022-09-18T10:48:24.297Z,76.40
2022-09-18T10:53:38.633Z,78.37
2022-09-18T10:58:46.692Z,80.17
2022-09-18T11:04:05.020Z,80.44
2022-09-18T11:09:11.293Z,79.95
2022-09-18T11:14:24.987Z,79.42
2022-09-18T11:19:40.300Z,78.96
2022-09-18T11:25:17.466Z,79.79
2022-09-18T11:30:27.924Z,79.92
2022-09-18T11:35:31.827Z,80.68
2022-09-18T11:40:44.960Z,80.55
2022-09-18T11:46:31.365Z,80.91
2022-09-18T11:52:02.512Z,80.74
2022-09-18T11:57:19.078Z,80.97
2022-09-18T12:02:38.147Z,82.22
2022-09-18T12:07:58.121Z,82.26
2022-09-18T12:13:13.664Z,82.58
2022-09-18T12:18:31.202Z,83.02
2022-09-18T12:23:36.273Z,82.54
2022-09-18T12:28:54.404Z,82.87
2022-09-18T12:34:08.898Z,83.56
2022-09-18T12:39:36.687Z,83.34
2022-09-18T12:45:43.781Z,82.89
2022-09-18T12:50:48.286Z,82.62
2022-09-18T12:56:19.563Z,82.19
2022-09-18T13:01:45.671Z,80.48
2022-09-18T13:06:58.212Z,79.65
2022-09-18T13:12:27.235Z,79.36
2022-09-18T13:17:39.525Z,78.65
2022-09-18T13:22:45.003Z,76.68
2022-09-18T13:27:47.732Z,76.72
2022-09-18T13:33:11.270Z,75.72
2022-09-18T13:38:28.851Z,77.38
2022-09-18T13:43:33.585Z,79.18
2022-09-18T13:48:45.649Z,80.19
2022-09-18T13:54:07.812Z,80.65
2022-09-18T13:59:21.961Z,80.77
2022-09-18T14:04:39.205Z,81.05
2022-09-18T14:09:48.971Z,81.24
2022-09-18T14:15:26.878Z,80.84
2022-09-18T14:20:28.807Z,80.22
2022-09-18T14:25:50.818Z,79.88
2022-09-18T14:31:17.199Z,80.05
2022-09-18T14:36:19.070Z,79.58
2022-09-18T14:41:27.110Z,79.07
2022-09-18T14:46:52.219Z,78.77
2022-09-18T14:52:03.588Z,78.79
2022-09-18T14:57:14.735Z,78.11
2022-09-18T15:02:22.614Z,75.96
2022-09-18T15:07:25.981Z,70.88
2022-09-18T15:12:31.696Z,69.28
2022-09-18T15:17:33.937Z,68.33
2022-09-18T15:22:35.918Z,69.03
2022-09-18T15:27:38.575Z,68.98
2022-09-18T15:32:45.679Z,67.11
2022-09-18T15:37:51.728Z,66.34
2022-09-18T15:43:27.141Z,65.98
2022-09-18T15:48:35.164Z,65.95
2022-09-18T15:53:39.008Z,65.69
2022-09-18T15:58:55.267Z,64.67
2022-09-18T16:04:04.459Z,63.59
2022-09-18T16:09:07.829Z,62.73
2022-09-18T16:14:39.623Z,62.13
2022-09-18T16:19:44.366Z,61.57
2022-09-18T16:24:46.666Z,62.35
2022-09-18T16:29:49.067Z,63.35
2022-09-18T16:34:50.870Z,64.57
2022-09-18T16:39:52.610Z,65.73
2022-09-18T16:45:28.311Z,66.89
2022-09-18T16:50:33.928Z,70.53
2022-09-18T16:55:52.188Z,71.84
2022-09-18T17:00:54.167Z,71.90
2022-09-18T17:05:56.358Z,72.35
2022-09-18T17:10:58.091Z,72.77
2022-09-18T17:16:01.805Z,73.22
2022-09-18T17:21:05.512Z,74.34
2022-09-18T17:26:10.214Z,76.85
2022-09-18T17:31:29.365Z,77.84
2022-09-18T17:36:59.243Z,78.01
2022-09-18T17:42:15.122Z,77.91
2022-09-18T17:47:17.010Z,77.73
2022-09-18T17:52:39.285Z,78.24
2022-09-18T17:57:41.247Z,78.29
2022-09-18T18:02:43.226Z,78.30
2022-09-18T18:07:44.979Z,78.42
2022-09-18T18:12:46.693Z,78.63
2022-09-18T18:17:49.484Z,78.99
2022-09-18T18:23:04.448Z,79.32
2022-09-18T18:28:09.206Z,80.06
2022-09-18T18:33:11.483Z,80.41
2022-09-18T18:38:16.937Z,80.57
2022-09-18T18:43:18.762Z,80.65
2022-09-18T18:48:23.501Z,80.62
2022-09-18T18:53:26.372Z,80.47
2022-09-18T18:58:28.527Z,79.96
2022-09-18T19:03:30.761Z,79.92
2022-09-18T19:08:34.559Z,80.03
2022-09-18T19:13:41.626Z,80.04
2022-09-18T19:18:43.536Z,79.95
2022-09-18T19:23:49.911Z,79.77
2022-09-18T19:28:53.434Z,79.77
2022-09-18T19:33:56.623Z,79.83
2022-09-18T19:39:00.738Z,80.16
2022-09-18T19:44:04.788Z,80.18
2022-09-18T19:49:15.745Z,80.34
2022-09-18T19:54:17.996Z,80.61
2022-09-18T19:59:19.731Z,80.86
2022-09-18T20:04:21.589Z,80.90
2022-09-18T20:09:28.611Z,80.85
2022-09-18T20:14:30.337Z,80.84
2022-09-18T20:19:32.176Z,80.84
2022-09-18T20:24:34.238Z,81.09
2022-09-18T20:29:36.392Z,81.17
2022-09-18T20:34:38.701Z,81.17
2022-09-18T20:39:44.523Z,81.07
2022-09-18T20:44:46.240Z,80.96
2022-09-18T20:49:50.393Z,80.91
2022-09-18T20:54:52.897Z,80.85
2022-09-18T20:59:54.601Z,80.80
2022-09-18T21:04:57.467Z,80.94
2022-09-18T21:10:00.169Z,81.19
2022-09-18T21:15:02.251Z,81.40
2022-09-18T21:20:07.087Z,81.59
2022-09-18T21:25:09.482Z,81.70
2022-09-18T21:30:12.600Z,81.82
2022-09-18T21:35:14.637Z,82.06
2022-09-18T21:40:16.613Z,82.10
2022-09-18T21:45:20.380Z,82.06
2022-09-18T21:50:22.877Z,82.17
2022-09-18T21:55:24.824Z,82.48
2022-09-18T22:00:26.625Z,82.70
2022-09-18T22:05:29.415Z,82.82
2022-09-18T22:10:31.242Z,82.89
2022-09-18T22:15:33.123Z,82.95
2022-09-18T22:20:37.016Z,83.05
2022-09-18T22:25:40.413Z,83.41
2022-09-18T22:30:42.189Z,83.84
2022-09-18T22:35:43.896Z,84.16
2022-09-18T22:40:45.633Z,84.48
2022-09-18T22:45:47.615Z,84.96
2022-09-18T22:50:50.501Z,85.46
2022-09-18T22:55:52.385Z,85.94
2022-09-18T23:00:54.214Z,86.38
2022-09-18T23:05:55.912Z,86.76
2022-09-18T23:11:08.172Z,87.18
2022-09-18T23:16:13.025Z,87.47
2022-09-18T23:21:15.020Z,87.64
2022-09-18T23:26:19.753Z,87.72
2022-09-18T23:31:24.901Z,87.68
2022-09-18T23:36:35.794Z,87.61
2022-09-18T23:41:38.478Z,87.60
2022-09-18T23:46:41.207Z,87.56
2022-09-18T23:51:46.434Z,87.45
2022-09-18T23:56:49.021Z,87.42
